createdAt,value
2018-01-01T00:00:06.325Z,168.87
2018-01-01T00:02:33.781Z,182.77
2018-01-01T00:05:01.219Z,201.70
2018-01-01T00:07:28.715Z,204.95
2018-01-01T00:09:56.154Z,222.18
2018-01-01T00:12:23.617Z,217.65
2018-01-01T00:14:51.177Z,199.60
2018-01-01T00:17:18.617Z,138.07
2018-01-01T00:19:46.085Z,130.45
2018-01-01T00:22:13.550Z,122.60
2018-01-01T00:24:40.993Z,87.90
2018-01-01T00:27:08.430Z,52.38
2018-01-01T00:29:35.889Z,62.00
2018-01-01T00:32:03.365Z,41.85
2018-01-01T00:34:30.823Z,43.92
2018-01-01T00:36:58.261Z,37.72
2018-01-01T00:39:25.718Z,35.75
2018-01-01T00:41:53.160Z,30.55
2018-01-01T00:44:20.614Z,22.08
2018-01-01T00:46:48.060Z,20.48
2018-01-01T00:49:16.277Z,22.90
2018-01-01T00:51:43.721Z,19.55
2018-01-01T00:54:11.201Z,16.33
2018-01-01T00:56:38.645Z,19.58
2018-01-01T00:59:06.098Z,56.03
2018-01-01T01:01:33.541Z,14.70
2018-01-01T01:04:01.030Z,12.40
2018-01-01T01:06:28.461Z,11.20
2018-01-01T01:08:55.925Z,11.85
2018-01-01T01:11:23.380Z,12.23
2018-01-01T01:13:50.842Z,16.50
2018-01-01T01:16:18.309Z,15.90
2018-01-01T01:18:45.761Z,15.40
2018-01-01T01:21:13.217Z,17.10
2018-01-01T01:23:40.674Z,15.70
2018-01-01T01:26:08.133Z,18.25
2018-01-01T01:28:36.419Z,18.48
2018-01-01T01:31:03.981Z,18.85
2018-01-01T01:33:31.827Z,18.00
2018-01-01T01:35:59.289Z,18.70
2018-01-01T01:38:26.730Z,18.12
2018-01-01T01:40:54.165Z,17.53
2018-01-01T01:43:21.653Z,18.20
2018-01-01T01:45:49.105Z,17.40
2018-01-01T01:48:16.542Z,17.73
2018-01-01T01:50:44.040Z,24.17
2018-01-01T01:53:11.585Z,24.40
2018-01-01T01:55:39.039Z,19.90
2018-01-01T01:58:06.476Z,16.20
2018-01-01T02:00:33.917Z,15.90
2018-01-01T02:03:01.358Z,14.60
2018-01-01T02:05:29.565Z,15.57
2018-01-01T02:07:57.029Z,29.30
2018-01-01T02:10:24.446Z,14.40
2018-01-01T02:12:52.851Z,15.88
2018-01-01T02:15:20.321Z,14.18
2018-01-01T02:17:47.757Z,12.65
2018-01-01T02:20:15.251Z,15.50
2018-01-01T02:22:42.680Z,14.23
2018-01-01T02:25:10.149Z,13.77
2018-01-01T02:27:37.621Z,14.05
2018-01-01T02:30:05.073Z,14.02
2018-01-01T02:32:33.261Z,13.48
2018-01-01T02:35:00.881Z,14.02
2018-01-01T02:37:28.301Z,15.98
2018-01-01T02:39:56.501Z,15.50
2018-01-01T02:42:23.942Z,12.73
2018-01-01T02:44:51.397Z,13.13
2018-01-01T02:47:18.833Z,27.55
2018-01-01T02:49:46.349Z,14.45
2018-01-01T02:52:13.787Z,12.43
2018-01-01T02:54:41.215Z,12.32
2018-01-01T02:57:09.446Z,11.68
2018-01-01T02:59:36.900Z,11.50
2018-01-01T03:02:04.330Z,13.13
2018-01-01T03:04:31.748Z,12.70
2018-01-01T03:06:59.945Z,11.73
2018-01-01T03:09:27.437Z,12.00
2018-01-01T03:11:54.884Z,12.50
2018-01-01T03:14:22.305Z,12.45
2018-01-01T03:16:49.805Z,13.25
2018-01-01T03:19:17.284Z,13.30
2018-01-01T03:21:44.689Z,13.27
2018-01-01T03:24:12.117Z,19.27
2018-01-01T03:26:40.363Z,14.85
2018-01-01T03:29:07.801Z,13.48
2018-01-01T03:31:35.257Z,14.87
2018-01-01T03:34:02.688Z,14.33
2018-01-01T03:36:30.155Z,12.65
2018-01-01T03:38:57.610Z,392.05
2018-01-01T03:41:25.025Z,13.57
2018-01-01T03:43:53.237Z,13.57
2018-01-01T03:46:20.668Z,14.23
2018-01-01T03:48:48.881Z,13.57
2018-01-01T03:51:16.327Z,12.02
2018-01-01T03:53:43.769Z,11.75
2018-01-01T03:56:11.218Z,11.02
2018-01-01T03:58:38.654Z,10.68
2018-01-01T04:01:06.869Z,10.88
2018-01-01T04:03:34.328Z,10.60
2018-01-01T04:06:01.866Z,10.15
2018-01-01T04:08:29.334Z,10.45
2018-01-01T04:10:56.817Z,9.52
2018-01-01T04:13:24.257Z,9.85
2018-01-01T04:15:51.737Z,9.40
2018-01-01T04:18:19.169Z,9.65
2018-01-01T04:20:46.653Z,9.40
2018-01-01T04:23:14.098Z,9.05
2018-01-01T04:25:41.527Z,9.68
2018-01-01T04:28:08.965Z,8.88
2018-01-01T04:30:36.389Z,8.25
2018-01-01T04:33:03.833Z,10.07
2018-01-01T04:35:31.275Z,8.90
2018-01-01T04:37:58.713Z,8.65
2018-01-01T04:40:26.149Z,8.18
2018-01-01T04:42:53.667Z,9.10
2018-01-01T04:45:21.209Z,8.55
2018-01-01T04:47:48.648Z,8.00
2018-01-01T04:50:16.073Z,7.77
2018-01-01T04:52:44.264Z,8.10
2018-01-01T04:55:11.770Z,7.10
2018-01-01T04:57:39.236Z,7.62
2018-01-01T05:00:06.769Z,7.43
2018-01-01T05:02:34.197Z,7.30
2018-01-01T05:05:01.677Z,7.53
2018-01-01T05:07:29.137Z,8.20
2018-01-01T05:09:56.583Z,7.90
2018-01-01T05:12:24.026Z,7.57
2018-01-01T05:14:51.520Z,7.70
2018-01-01T05:17:18.955Z,8.37
2018-01-01T05:19:46.421Z,8.05
2018-01-01T05:22:13.849Z,7.90
2018-01-01T05:24:41.333Z,6.80
2018-01-01T05:27:08.786Z,7.82
2018-01-01T05:29:36.243Z,24.55
2018-01-01T05:32:03.702Z,10.13
2018-01-01T05:34:31.126Z,8.98
2018-01-01T05:36:58.554Z,8.25
2018-01-01T05:39:26.778Z,6.30
2018-01-01T05:41:54.249Z,6.07
2018-01-01T05:44:21.688Z,6.00
2018-01-01T05:46:49.150Z,7.12
2018-01-01T05:49:16.587Z,30.98
2018-01-01T05:51:44.009Z,6.57
2018-01-01T05:54:12.237Z,6.87
2018-01-01T05:56:39.662Z,8.20
2018-01-01T05:59:07.141Z,5.85
2018-01-01T06:01:34.570Z,6.20
2018-01-01T06:04:02.059Z,5.87
2018-01-01T06:06:30.293Z,5.40
2018-01-01T06:08:57.792Z,5.47
2018-01-01T06:11:25.237Z,5.50
2018-01-01T06:13:52.697Z,5.28
2018-01-01T06:16:20.149Z,5.30
2018-01-01T06:18:47.581Z,5.22
2018-01-01T06:21:15.074Z,5.00
2018-01-01T06:23:42.504Z,6.07
2018-01-01T06:26:09.977Z,5.57
2018-01-01T06:28:37.659Z,5.18
2018-01-01T06:31:05.203Z,5.60
2018-01-01T06:33:32.623Z,5.32
2018-01-01T06:36:00.042Z,4.72
2018-01-01T06:38:27.665Z,4.37
2018-01-01T06:40:55.093Z,3.42
2018-01-01T06:43:22.533Z,4.57
2018-01-01T06:45:50.725Z,3.65
2018-01-01T06:48:18.214Z,4.20
2018-01-01T06:50:45.633Z,3.87
2018-01-01T06:53:13.057Z,3.25
2018-01-01T06:55:40.585Z,3.70
2018-01-01T06:58:08.026Z,3.03
2018-01-01T07:00:35.508Z,3.05
2018-01-01T07:03:02.969Z,2.50
2018-01-01T07:05:30.493Z,2.78
2018-01-01T07:07:57.906Z,2.87
2018-01-01T07:10:26.238Z,2.80
2018-01-01T07:12:53.693Z,2.83
2018-01-01T07:15:21.130Z,2.80
2018-01-01T07:17:48.565Z,3.03
2018-01-01T07:20:16.785Z,2.90
2018-01-01T07:22:44.238Z,2.70
2018-01-01T07:25:11.666Z,3.10
2018-01-01T07:27:39.106Z,3.50
2018-01-01T07:30:07.335Z,2.83
2018-01-01T07:32:34.788Z,2.65
2018-01-01T07:35:02.213Z,2.67
2018-01-01T07:37:29.657Z,1.60
2018-01-01T07:39:57.146Z,2.00
2018-01-01T07:42:24.618Z,2.00
2018-01-01T07:44:52.089Z,2.40
2018-01-01T07:47:19.528Z,2.30
2018-01-01T07:49:46.960Z,1.90
2018-01-01T07:52:14.425Z,1.70
2018-01-01T07:54:41.860Z,2.30
2018-01-01T07:57:09.350Z,2.22
2018-01-01T07:59:36.773Z,2.03
2018-01-01T08:02:04.200Z,2.35
2018-01-01T08:04:31.635Z,2.12
2018-01-01T08:06:59.166Z,2.03
2018-01-01T08:09:26.593Z,2.60
2018-01-01T08:11:54.078Z,2.20
2018-01-01T08:14:21.505Z,2.60
2018-01-01T08:16:48.929Z,2.03
2018-01-01T08:19:16.380Z,2.20
2018-01-01T08:21:43.806Z,2.25
2018-01-01T08:24:11.232Z,2.10
2018-01-01T08:26:38.700Z,2.30
2018-01-01T08:29:06.184Z,2.60
2018-01-01T08:31:34.122Z,1.98
2018-01-01T08:34:01.588Z,3.20
2018-01-01T08:36:29.742Z,2.70
2018-01-01T08:38:57.185Z,2.50
2018-01-01T08:41:24.646Z,2.53
2018-01-01T08:43:52.074Z,2.60
2018-01-01T08:46:19.618Z,3.37
2018-01-01T08:48:47.025Z,2.50
2018-01-01T08:51:14.853Z,2.87
2018-01-01T08:53:42.394Z,2.77
2018-01-01T08:56:09.814Z,2.80
2018-01-01T08:58:37.286Z,2.70
2018-01-01T09:01:04.746Z,2.65
2018-01-01T09:03:32.165Z,2.15
2018-01-01T09:05:59.602Z,3.35
2018-01-01T09:08:27.790Z,2.37
2018-01-01T09:10:55.233Z,2.50
2018-01-01T09:13:23.454Z,2.10
2018-01-01T09:15:50.885Z,2.42
2018-01-01T09:18:18.316Z,2.40
2018-01-01T09:20:46.537Z,2.80
2018-01-01T09:23:13.998Z,2.50
2018-01-01T09:25:41.425Z,2.30
2018-01-01T09:28:08.869Z,2.37
2018-01-01T09:30:36.317Z,2.53
2018-01-01T09:33:04.513Z,2.50
2018-01-01T09:35:31.953Z,2.70
2018-01-01T09:38:00.165Z,2.83
2018-01-01T09:40:27.605Z,3.10
2018-01-01T09:42:55.090Z,2.80
2018-01-01T09:45:22.649Z,2.40
2018-01-01T09:47:50.078Z,3.10
2018-01-01T09:50:17.553Z,2.58
2018-01-01T09:52:45.003Z,2.95
2018-01-01T09:55:12.569Z,2.28
2018-01-01T09:57:39.996Z,2.80
2018-01-01T10:00:07.424Z,2.85
2018-01-01T10:02:35.662Z,3.37
2018-01-01T10:05:03.084Z,2.92
2018-01-01T10:07:30.526Z,3.05
2018-01-01T10:09:58.735Z,2.67
2018-01-01T10:12:26.206Z,3.10
2018-01-01T10:14:53.648Z,3.42
2018-01-01T10:17:21.073Z,3.30
2018-01-01T10:19:48.492Z,4.05
2018-01-01T10:22:16.022Z,3.20
2018-01-01T10:24:43.446Z,3.10
2018-01-01T10:27:10.936Z,3.47
2018-01-01T10:29:38.378Z,3.30
2018-01-01T10:32:05.826Z,3.60
2018-01-01T10:34:33.305Z,3.17
2018-01-01T10:37:00.738Z,3.30
2018-01-01T10:39:29.141Z,3.60
2018-01-01T10:41:56.601Z,3.70
2018-01-01T10:44:24.145Z,3.10
2018-01-01T10:46:51.594Z,3.40
2018-01-01T10:49:19.025Z,3.30
2018-01-01T10:51:46.534Z,2.80
2018-01-01T10:54:13.993Z,2.30
2018-01-01T10:56:41.420Z,2.42
2018-01-01T10:59:08.902Z,2.62
2018-01-01T11:01:36.322Z,2.22
2018-01-01T11:04:03.766Z,2.53
2018-01-01T11:06:31.182Z,2.53
2018-01-01T11:08:58.625Z,2.70
2018-01-01T11:11:26.050Z,3.00
2018-01-01T11:13:53.520Z,2.58
2018-01-01T11:16:20.966Z,2.40
2018-01-01T11:18:48.385Z,2.53
2018-01-01T11:21:15.813Z,2.37
2018-01-01T11:23:44.177Z,2.70
2018-01-01T11:26:11.611Z,2.77
2018-01-01T11:28:39.034Z,2.42
2018-01-01T11:31:07.242Z,2.87
2018-01-01T11:33:34.700Z,3.30
2018-01-01T11:36:02.129Z,3.30
2018-01-01T11:38:30.310Z,2.90
2018-01-01T11:40:57.746Z,3.17
2018-01-01T11:43:25.950Z,3.40
2018-01-01T11:45:53.386Z,3.33
2018-01-01T11:48:20.871Z,3.20
2018-01-01T11:50:48.286Z,3.30
2018-01-01T11:53:15.717Z,4.25
2018-01-01T11:55:43.154Z,3.65
2018-01-01T11:58:10.727Z,3.60
2018-01-01T12:00:38.165Z,3.78
2018-01-01T12:03:05.646Z,3.50
2018-01-01T12:05:33.085Z,3.37
2018-01-01T12:08:00.525Z,3.40
2018-01-01T12:10:27.993Z,3.42
2018-01-01T12:12:55.522Z,3.50
2018-01-01T12:15:22.950Z,3.80
2018-01-01T12:17:51.281Z,4.20
2018-01-01T12:20:18.705Z,4.05
2018-01-01T12:22:46.153Z,4.10
2018-01-01T12:25:13.682Z,4.28
2018-01-01T12:27:41.110Z,4.10
2018-01-01T12:30:08.531Z,4.55
2018-01-01T12:32:35.954Z,3.83
2018-01-01T12:35:03.469Z,3.90
2018-01-01T12:37:30.929Z,4.18
2018-01-01T12:39:58.385Z,4.20
2018-01-01T12:42:25.817Z,4.80
2018-01-01T12:44:53.394Z,4.00
2018-01-01T12:47:20.808Z,4.07
2018-01-01T12:49:49.016Z,3.55
2018-01-01T12:52:16.485Z,4.32
2018-01-01T12:54:43.941Z,4.20
2018-01-01T12:57:11.389Z,3.50
2018-01-01T12:59:38.824Z,3.70
2018-01-01T13:02:06.289Z,3.90
2018-01-01T13:04:33.707Z,4.32
2018-01-01T13:07:01.129Z,3.70
2018-01-01T13:09:28.566Z,3.80
2018-01-01T13:11:56.010Z,3.50
2018-01-01T13:14:23.444Z,3.65
2018-01-01T13:16:51.674Z,5.10
2018-01-01T13:19:19.165Z,3.60
2018-01-01T13:21:46.586Z,3.95
2018-01-01T13:24:14.041Z,3.30
2018-01-01T13:26:41.669Z,3.60
2018-01-01T13:29:09.124Z,4.17
2018-01-01T13:31:36.643Z,3.60
2018-01-01T13:34:04.263Z,3.90
2018-01-01T13:36:31.898Z,3.60
2018-01-01T13:38:59.422Z,3.50
2018-01-01T13:41:26.869Z,4.75
2018-01-01T13:43:54.298Z,4.12
2018-01-01T13:46:21.764Z,4.40
2018-01-01T13:48:50.361Z,4.25
2018-01-01T13:51:17.797Z,3.58
2018-01-01T13:53:45.268Z,4.10
2018-01-01T13:56:12.686Z,3.95
2018-01-01T13:58:40.173Z,4.43
2018-01-01T14:01:07.610Z,3.50
2018-01-01T14:03:35.059Z,3.47
2018-01-01T14:06:02.546Z,3.40
2018-01-01T14:08:29.975Z,3.30
2018-01-01T14:10:57.409Z,2.80
2018-01-01T14:13:25.660Z,3.53
2018-01-01T14:15:53.093Z,3.60
2018-01-01T14:18:20.525Z,3.60
2018-01-01T14:20:47.953Z,3.70
2018-01-01T14:23:16.269Z,3.05
2018-01-01T14:25:43.845Z,3.50
2018-01-01T14:28:11.305Z,4.40
2018-01-01T14:30:38.750Z,5.80
2018-01-01T14:33:06.208Z,4.60
2018-01-01T14:35:33.630Z,4.47
2018-01-01T14:38:01.113Z,4.65
2018-01-01T14:40:29.431Z,3.58
2018-01-01T14:42:56.872Z,3.42
2018-01-01T14:45:24.300Z,4.00
2018-01-01T14:47:51.849Z,3.50
2018-01-01T14:50:19.269Z,3.30
2018-01-01T14:52:47.506Z,3.20
2018-01-01T14:55:14.953Z,3.85
2018-01-01T14:57:42.369Z,3.40
2018-01-01T15:00:09.797Z,3.87
2018-01-01T15:02:37.319Z,3.00
2018-01-01T15:05:04.752Z,3.95
2018-01-01T15:07:32.176Z,3.75
2018-01-01T15:10:00.373Z,3.12
2018-01-01T15:12:27.866Z,3.20
2018-01-01T15:14:55.321Z,2.50
2018-01-01T15:17:22.959Z,2.80
2018-01-01T15:19:50.373Z,2.85
2018-01-01T15:22:18.606Z,2.70
2018-01-01T15:24:46.147Z,3.00
2018-01-01T15:27:13.550Z,3.30
2018-01-01T15:29:41.182Z,3.72
2018-01-01T15:32:08.605Z,3.53
2018-01-01T15:34:36.029Z,3.53
2018-01-01T15:37:03.518Z,3.15
2018-01-01T15:39:30.973Z,3.28
2018-01-01T15:41:58.469Z,3.00
2018-01-01T15:44:26.006Z,3.10
2018-01-01T15:46:53.433Z,2.80
2018-01-01T15:49:20.861Z,3.50
2018-01-01T15:51:48.485Z,2.70
2018-01-01T15:54:15.909Z,3.55
2018-01-01T15:56:43.408Z,3.30
2018-01-01T15:59:10.822Z,3.50
2018-01-01T16:01:38.310Z,6.47
2018-01-01T16:04:05.741Z,4.43
2018-01-01T16:06:33.352Z,3.70
2018-01-01T16:09:00.773Z,3.05
2018-01-01T16:11:28.209Z,3.20
2018-01-01T16:13:55.641Z,2.83
2018-01-01T16:16:23.841Z,3.22
2018-01-01T16:18:51.283Z,3.45
2018-01-01T16:21:19.480Z,3.40
2018-01-01T16:23:46.958Z,2.83
2018-01-01T16:26:14.409Z,3.20
2018-01-01T16:28:41.838Z,4.00
2018-01-01T16:31:09.306Z,4.03
2018-01-01T16:33:36.737Z,3.40
2018-01-01T16:36:04.177Z,4.20
2018-01-01T16:38:32.530Z,3.70
2018-01-01T16:40:59.949Z,3.67
2018-01-01T16:43:27.385Z,3.70
2018-01-01T16:45:54.844Z,4.30
2018-01-01T16:48:22.323Z,3.50
2018-01-01T16:50:49.803Z,3.10
2018-01-01T16:53:17.230Z,3.60
2018-01-01T16:55:44.671Z,3.90
2018-01-01T16:58:12.873Z,4.00
2018-01-01T17:00:40.313Z,2.95
2018-01-01T17:03:07.761Z,3.75
2018-01-01T17:05:35.200Z,3.78
2018-01-01T17:08:02.713Z,3.85
2018-01-01T17:10:30.152Z,3.58
2018-01-01T17:12:57.578Z,4.03
2018-01-01T17:15:25.081Z,4.43
2018-01-01T17:17:52.545Z,3.97
2018-01-01T17:20:19.965Z,4.60
2018-01-01T17:22:47.397Z,4.35
2018-01-01T17:25:15.592Z,4.00
2018-01-01T17:27:43.082Z,4.40
2018-01-01T17:30:10.515Z,4.70
2018-01-01T17:32:37.957Z,4.85
2018-01-01T17:35:05.381Z,16.85
2018-01-01T17:37:32.813Z,5.87
2018-01-01T17:40:00.241Z,4.90
2018-01-01T17:42:27.685Z,5.90
2018-01-01T17:44:55.101Z,6.25
2018-01-01T17:47:22.536Z,8.50
2018-01-01T17:49:49.949Z,7.37
2018-01-01T17:52:17.407Z,9.27
2018-01-01T17:54:44.834Z,8.15
2018-01-01T17:57:12.273Z,12.80
2018-01-01T17:59:39.716Z,14.97
2018-01-01T18:02:07.146Z,15.40
2018-01-01T18:04:34.614Z,11.40
2018-01-01T18:07:02.031Z,11.10
2018-01-01T18:09:29.472Z,10.95
2018-01-01T18:11:56.917Z,14.23
2018-01-01T18:14:24.369Z,12.25
2018-01-01T18:16:51.806Z,15.87
2018-01-01T18:19:19.241Z,10.38
2018-01-01T18:21:46.675Z,11.60
2018-01-01T18:24:14.925Z,15.05
2018-01-01T18:26:42.739Z,11.30
2018-01-01T18:29:10.177Z,10.20
2018-01-01T18:31:37.699Z,8.40
2018-01-01T18:34:05.248Z,7.75
2018-01-01T18:36:32.685Z,7.90
2018-01-01T18:39:00.161Z,6.90
2018-01-01T18:41:27.605Z,7.68
2018-01-01T18:43:55.081Z,7.72
2018-01-01T18:46:22.523Z,8.48
2018-01-01T18:48:50.718Z,8.95
2018-01-01T18:51:18.153Z,8.63
2018-01-01T18:53:46.366Z,8.43
2018-01-01T18:56:13.802Z,8.30
2018-01-01T18:58:41.238Z,7.10
2018-01-01T19:01:09.433Z,6.20
2018-01-01T19:03:36.862Z,6.12
2018-01-01T19:06:04.277Z,6.40
2018-01-01T19:08:31.730Z,7.82
2018-01-01T19:10:59.170Z,8.35
2018-01-01T19:13:26.665Z,10.45
2018-01-01T19:15:54.105Z,10.65
2018-01-01T19:18:22.333Z,10.43
2018-01-01T19:20:49.765Z,9.38
2018-01-01T19:23:17.247Z,9.02
2018-01-01T19:25:44.680Z,9.55
2018-01-01T19:28:12.181Z,12.45
2018-01-01T19:30:39.598Z,17.20
2018-01-01T19:33:07.077Z,18.67
2018-01-01T19:35:34.517Z,14.90
2018-01-01T19:38:01.945Z,10.98
2018-01-01T19:40:29.389Z,10.30
2018-01-01T19:42:56.901Z,9.00
2018-01-01T19:45:24.345Z,8.07
2018-01-01T19:47:51.784Z,8.10
2018-01-01T19:50:19.222Z,8.10
2018-01-01T19:52:46.663Z,8.10
2018-01-01T19:55:14.898Z,8.67
2018-01-01T19:57:42.337Z,8.65
2018-01-01T20:00:09.803Z,9.77
2018-01-01T20:02:37.234Z,8.73
2018-01-01T20:05:04.717Z,9.95
2018-01-01T20:07:32.281Z,9.50
2018-01-01T20:09:59.734Z,12.18
2018-01-01T20:12:27.172Z,10.33
2018-01-01T20:14:54.611Z,8.80
2018-01-01T20:17:22.039Z,8.93
2018-01-01T20:19:50.275Z,9.30
2018-01-01T20:22:17.718Z,9.52
2018-01-01T20:24:45.142Z,9.77
2018-01-01T20:27:12.580Z,9.93
2018-01-01T20:29:40.761Z,9.95
2018-01-01T20:32:08.978Z,9.73
2018-01-01T20:34:36.427Z,9.48
2018-01-01T20:37:03.904Z,9.50
2018-01-01T20:39:31.337Z,9.20
2018-01-01T20:41:58.771Z,8.60
2018-01-01T20:44:26.216Z,9.27
2018-01-01T20:46:54.441Z,9.50
2018-01-01T20:49:21.869Z,10.45
2018-01-01T20:51:50.105Z,11.50
2018-01-01T20:54:17.567Z,9.00
2018-01-01T20:56:44.999Z,8.63
2018-01-01T20:59:12.443Z,8.90
2018-01-01T21:01:39.885Z,7.85
2018-01-01T21:04:08.090Z,8.43
2018-01-01T21:06:35.542Z,8.10
2018-01-01T21:09:02.961Z,8.30
2018-01-01T21:11:31.185Z,8.48
2018-01-01T21:13:58.622Z,8.55
2018-01-01T21:16:26.049Z,8.63
2018-01-01T21:18:54.275Z,8.88
2018-01-01T21:21:21.706Z,9.45
2018-01-01T21:23:49.149Z,8.25
2018-01-01T21:26:16.579Z,8.60
2018-01-01T21:28:44.034Z,8.20
2018-01-01T21:31:11.449Z,8.50
2018-01-01T21:33:38.896Z,8.93
2018-01-01T21:36:06.330Z,9.45
2018-01-01T21:38:33.753Z,8.02
2018-01-01T21:41:01.181Z,7.62
2018-01-01T21:43:28.623Z,7.70
2018-01-01T21:45:56.059Z,6.67
2018-01-01T21:48:23.545Z,8.20
2018-01-01T21:50:50.968Z,7.82
2018-01-01T21:53:18.463Z,7.60
2018-01-01T21:55:45.919Z,7.30
2018-01-01T21:58:13.373Z,7.70
2018-01-01T22:00:40.817Z,7.32
2018-01-01T22:03:08.245Z,7.35
2018-01-01T22:05:35.697Z,7.60
2018-01-01T22:08:03.894Z,7.80
2018-01-01T22:10:31.368Z,7.78
2018-01-01T22:12:58.808Z,7.40
2018-01-01T22:15:26.319Z,8.10
2018-01-01T22:17:53.769Z,7.50
2018-01-01T22:20:23.417Z,7.43
2018-01-01T22:22:50.920Z,7.50
2018-01-01T22:25:18.394Z,7.70
2018-01-01T22:27:45.867Z,8.40
2018-01-01T22:30:14.174Z,13.05
2018-01-01T22:32:41.628Z,13.60
2018-01-01T22:35:09.117Z,11.00
2018-01-01T22:37:36.607Z,8.70
2018-01-01T22:40:04.115Z,8.50
2018-01-01T22:42:31.572Z,7.60
2018-01-01T22:44:59.054Z,8.32
2018-01-01T22:47:26.493Z,7.75
2018-01-01T22:49:53.934Z,8.35
2018-01-01T22:52:21.405Z,8.30
2018-01-01T22:54:48.887Z,8.50
2018-01-01T22:57:16.361Z,8.35
2018-01-01T22:59:45.041Z,8.70
2018-01-01T23:02:12.477Z,8.93
2018-01-01T23:04:39.928Z,8.00
2018-01-01T23:07:07.360Z,7.83
2018-01-01T23:09:34.798Z,7.60
2018-01-01T23:12:02.221Z,7.80
2018-01-01T23:14:30.507Z,8.40
2018-01-01T23:16:58.763Z,7.93
2018-01-01T23:19:26.223Z,8.60
2018-01-01T23:21:53.707Z,8.20
2018-01-01T23:24:22.021Z,7.47
2018-01-01T23:26:49.596Z,8.30
2018-01-01T23:29:17.045Z,8.55
2018-01-01T23:31:44.549Z,7.70
2018-01-01T23:34:12.029Z,8.70
2018-01-01T23:36:39.449Z,7.18
2018-01-01T23:39:07.081Z,7.15
2018-01-01T23:41:34.509Z,7.30
2018-01-01T23:44:02.044Z,7.20
2018-01-01T23:46:30.295Z,7.60
2018-01-01T23:48:57.759Z,7.53
2018-01-01T23:51:25.391Z,7.70
2018-01-01T23:53:52.825Z,8.75
2018-01-01T23:56:20.285Z,9.82
2018-01-01T23:58:47.718Z,9.05
